Terminal Aerodrome Forecast
Issued by NWS

Home | Current Version | Previous Version | Graphics & Text | Print | Product List | Glossary On
Versions: 1 2 3 4 5 6 7 8 9 10 11 12 13 14 15 16 17
000
FTUS43 KIWX 302339
TAFSBN
TAF
KSBN 302339Z 0100/0124 32008KT P6SM SCT006 BKN025
      TEMPO 0100/0102 4SM BR BKN006
     FM010500 31003KT 6SM BR SCT020
      TEMPO 0109/0112 3SM BR
     FM011300 33006KT P6SM BKN020
     FM011500 34008KT P6SM SCT040=

USA.gov is the U.S. government's official web portal to all federal, state and local government web resources and services.